LEV weather

Levuka Airfield
Bureta, Eastern, Fiji

Public forecast

Using degrees Celsius for public forecast. Weather courtesy of forecast.io.

Closest aviation weather report (METAR) to Levuka Airfield

Closest report is Nausori International Airport, 23.0 nm (42.6 km) SSW. Retrieved 2020/04/09 00:00 UTC (20 minutes ago):

NFNA 090000Z 26014KT 9999 BKN022 SCT042 BKN300 29/26 Q1008

Closest aviation forecast (TAF) to Levuka Airfield

Closest forecast is Nausori International Airport, 23.0 nm (42.6 km) SSW. Retrieved 2020-04-09 00:30 UTC (0 seconds ago):

TAF TAF NFNA 082327Z 0900/0924 22009KT 9999 -SHRA SCT020 BKN100 PROB30 TEMPO 0903/0912 5000 SHRA BKN015